createdAt,value
2016-11-10T00:00:08.372Z,97.59
2016-11-10T00:01:08.093Z,98.01
2016-11-10T00:02:08.068Z,98.19
2016-11-10T00:03:07.796Z,97.95
2016-11-10T00:04:08.661Z,98.20
2016-11-10T00:05:08.293Z,97.76
2016-11-10T00:06:07.872Z,97.36
2016-11-10T00:07:08.517Z,97.04
2016-11-10T00:08:08.252Z,97.56
2016-11-10T00:09:07.945Z,97.38
2016-11-10T00:10:08.345Z,97.61
2016-11-10T00:11:08.240Z,96.49
2016-11-10T00:12:07.989Z,96.61
2016-11-10T00:13:07.788Z,97.33
2016-11-10T00:14:08.468Z,97.01
2016-11-10T00:15:09.429Z,97.54
2016-11-10T00:16:08.248Z,96.87
2016-11-10T00:17:08.167Z,96.94
2016-11-10T00:18:08.180Z,96.70
2016-11-10T00:19:07.840Z,96.82
2016-11-10T00:20:08.539Z,97.00
2016-11-10T00:21:08.327Z,96.75
2016-11-10T00:22:07.979Z,97.04
2016-11-10T00:23:07.579Z,97.27
2016-11-10T00:24:08.254Z,96.80
2016-11-10T00:25:07.908Z,96.46
2016-11-10T00:26:08.536Z,96.54
2016-11-10T00:27:08.311Z,96.82
2016-11-10T00:28:08.189Z,95.77
2016-11-10T00:29:07.959Z,95.31
2016-11-10T00:30:07.748Z,95.57
2016-11-10T00:31:08.376Z,96.02
2016-11-10T00:32:08.058Z,95.59
2016-11-10T00:33:07.819Z,94.91
2016-11-10T00:34:08.475Z,95.14
2016-11-10T00:35:08.082Z,95.06
2016-11-10T00:36:07.838Z,94.68
2016-11-10T00:37:08.460Z,94.16
2016-11-10T00:38:08.228Z,94.23
2016-11-10T00:39:07.928Z,93.95
2016-11-10T00:40:07.609Z,93.48
2016-11-10T00:41:08.325Z,93.41
2016-11-10T00:42:08.157Z,93.50
2016-11-10T00:43:07.960Z,93.49
2016-11-10T00:44:07.614Z,94.17
2016-11-10T00:45:08.290Z,93.85
2016-11-10T00:46:08.084Z,93.70
2016-11-10T00:47:07.659Z,93.52
2016-11-10T00:48:08.359Z,94.50
2016-11-10T00:49:08.096Z,94.31
2016-11-10T00:50:07.797Z,94.27
2016-11-10T00:51:08.575Z,95.18
2016-11-10T00:52:08.296Z,95.77
2016-11-10T00:53:08.049Z,95.71
2016-11-10T00:54:07.728Z,93.16
2016-11-10T00:55:08.408Z,94.03
2016-11-10T00:56:08.074Z,94.07
2016-11-10T00:57:07.831Z,94.06
2016-11-10T00:58:08.669Z,93.90
2016-11-10T00:59:08.445Z,94.37
2016-11-10T01:00:08.434Z,95.34
2016-11-10T01:01:07.982Z,96.10
2016-11-10T01:02:07.637Z,96.28
2016-11-10T01:03:08.364Z,93.75
2016-11-10T01:04:08.185Z,94.54
2016-11-10T01:05:07.808Z,94.80
2016-11-10T01:06:08.698Z,93.11
2016-11-10T01:07:08.552Z,93.49
2016-11-10T01:08:08.389Z,93.50
2016-11-10T01:09:07.984Z,90.21
2016-11-10T01:10:07.785Z,92.23
2016-11-10T01:11:08.458Z,92.29
2016-11-10T01:12:08.072Z,91.66
2016-11-10T01:13:08.440Z,91.86
2016-11-10T01:14:08.247Z,91.61
2016-11-10T01:15:07.841Z,90.69
2016-11-10T01:16:08.591Z,90.94
2016-11-10T01:17:08.515Z,90.62
2016-11-10T01:18:08.549Z,92.29
2016-11-10T01:19:08.143Z,92.06
2016-11-10T01:20:07.740Z,91.08
2016-11-10T01:21:08.390Z,91.75
2016-11-10T01:22:08.234Z,91.33
2016-11-10T01:23:07.942Z,91.47
2016-11-10T01:24:07.751Z,90.54
2016-11-10T01:25:08.325Z,89.23
2016-11-10T01:26:07.999Z,90.14
2016-11-10T01:27:07.656Z,90.84
2016-11-10T01:28:08.397Z,90.47
2016-11-10T01:29:08.092Z,90.45
2016-11-10T01:30:08.949Z,90.54
2016-11-10T01:31:07.757Z,89.47
2016-11-10T01:32:08.582Z,89.22
2016-11-10T01:33:08.222Z,89.84
2016-11-10T01:34:07.990Z,90.42
2016-11-10T01:35:07.564Z,90.28
2016-11-10T01:36:08.381Z,89.33
2016-11-10T01:37:07.985Z,88.88
2016-11-10T01:38:07.695Z,90.00
2016-11-10T01:39:08.641Z,90.47
2016-11-10T01:40:09.036Z,90.31
2016-11-10T01:41:07.794Z,89.20
2016-11-10T01:42:16.365Z,86.97
2016-11-10T01:43:08.210Z,87.16
2016-11-10T01:44:09.337Z,87.38
2016-11-10T01:45:08.117Z,86.97
2016-11-10T01:46:08.018Z,88.11
2016-11-10T01:47:07.746Z,87.58
2016-11-10T01:48:08.606Z,85.74
2016-11-10T01:49:08.363Z,85.67
2016-11-10T01:50:08.119Z,88.03
2016-11-10T01:51:07.870Z,87.37
2016-11-10T01:52:08.582Z,86.80
2016-11-10T01:53:08.431Z,87.97
2016-11-10T01:54:08.394Z,87.08
2016-11-10T01:55:08.000Z,87.39
2016-11-10T01:56:07.767Z,86.36
2016-11-10T01:57:08.571Z,87.06
2016-11-10T01:58:08.278Z,87.75
2016-11-10T01:59:07.905Z,89.37
2016-11-10T02:00:07.993Z,88.41
2016-11-10T02:01:07.634Z,87.70
2016-11-10T02:02:08.350Z,87.62
2016-11-10T02:03:08.491Z,87.09
2016-11-10T02:04:08.369Z,87.11
2016-11-10T02:05:08.517Z,88.16
2016-11-10T02:06:08.255Z,87.20
2016-11-10T02:07:13.747Z,86.86
2016-11-10T02:08:08.409Z,86.75
2016-11-10T02:09:08.166Z,85.82
2016-11-10T02:10:07.784Z,85.54
2016-11-10T02:11:08.192Z,86.41
2016-11-10T02:12:07.971Z,87.30
2016-11-10T02:13:07.805Z,85.17
2016-11-10T02:14:08.462Z,85.59
2016-11-10T02:15:08.103Z,86.39
2016-11-10T02:16:08.284Z,86.47
2016-11-10T02:17:08.090Z,86.51
2016-11-10T02:18:08.184Z,86.45
2016-11-10T02:19:07.812Z,86.28
2016-11-10T02:20:08.523Z,86.67
2016-11-10T02:21:08.317Z,86.37
2016-11-10T02:22:08.394Z,86.85
2016-11-10T02:23:08.261Z,86.53
2016-11-10T02:24:07.913Z,86.42
2016-11-10T02:25:08.023Z,86.77
2016-11-10T02:26:07.577Z,86.10
2016-11-10T02:27:07.948Z,86.07
2016-11-10T02:28:07.652Z,84.59
2016-11-10T02:29:08.391Z,86.01
2016-11-10T02:30:08.271Z,85.45
2016-11-10T02:31:08.034Z,86.32
2016-11-10T02:32:07.817Z,84.46
2016-11-10T02:33:08.551Z,85.78
2016-11-10T02:34:08.230Z,85.25
2016-11-10T02:35:08.091Z,84.22
2016-11-10T02:36:07.726Z,83.44
2016-11-10T02:37:07.834Z,84.38
2016-11-10T02:38:08.756Z,84.43
2016-11-10T02:39:08.651Z,84.80
2016-11-10T02:40:08.382Z,83.85
2016-11-10T02:41:08.241Z,83.96
2016-11-10T02:42:08.080Z,85.04
2016-11-10T02:43:13.355Z,84.49
2016-11-10T02:44:07.965Z,84.88
2016-11-10T02:45:08.704Z,82.81
2016-11-10T02:46:08.463Z,83.17
2016-11-10T02:47:08.094Z,83.70
2016-11-10T02:48:07.754Z,84.40
2016-11-10T02:49:08.699Z,82.95
2016-11-10T02:50:08.455Z,84.02
2016-11-10T02:51:08.269Z,82.55
2016-11-10T02:52:08.250Z,83.60
2016-11-10T02:53:07.973Z,83.16
2016-11-10T02:54:07.753Z,83.02
2016-11-10T02:55:08.616Z,82.46
2016-11-10T02:56:08.390Z,82.56
2016-11-10T02:57:08.109Z,83.64
2016-11-10T02:58:07.935Z,83.69
2016-11-10T02:59:13.707Z,83.85
2016-11-10T03:00:08.506Z,83.51
2016-11-10T03:01:08.120Z,83.83
2016-11-10T03:02:07.915Z,84.52
2016-11-10T03:03:08.417Z,84.46
2016-11-10T03:04:08.211Z,84.12
2016-11-10T03:05:07.975Z,84.71
2016-11-10T03:06:07.709Z,84.35
2016-11-10T03:07:08.601Z,83.02
2016-11-10T03:08:08.211Z,84.56
2016-11-10T03:09:07.765Z,83.96
2016-11-10T03:10:08.480Z,84.40
2016-11-10T03:11:08.431Z,83.12
2016-11-10T03:12:08.151Z,83.48
2016-11-10T03:13:07.851Z,84.80
2016-11-10T03:14:08.474Z,84.25
2016-11-10T03:15:09.141Z,84.32
2016-11-10T03:16:07.899Z,83.81
2016-11-10T03:17:07.880Z,84.31
2016-11-10T03:18:08.537Z,84.84
2016-11-10T03:19:08.268Z,84.11
2016-11-10T03:20:07.994Z,84.41
2016-11-10T03:21:07.959Z,84.22
2016-11-10T03:22:07.803Z,83.07
2016-11-10T03:23:08.456Z,83.41
2016-11-10T03:24:09.002Z,84.24
2016-11-10T03:25:07.875Z,83.23
2016-11-10T03:26:08.622Z,83.70
2016-11-10T03:27:08.358Z,83.28
2016-11-10T03:28:08.163Z,83.12
2016-11-10T03:29:07.867Z,83.36
2016-11-10T03:30:08.617Z,84.25
2016-11-10T03:31:08.492Z,83.70
2016-11-10T03:32:09.036Z,83.70
2016-11-10T03:33:07.835Z,82.79
2016-11-10T03:34:08.693Z,82.83
2016-11-10T03:35:08.470Z,83.33
2016-11-10T03:36:08.239Z,83.48
2016-11-10T03:37:07.872Z,83.04
2016-11-10T03:38:08.506Z,83.45
2016-11-10T03:39:08.176Z,84.48
2016-11-10T03:40:07.804Z,82.66
2016-11-10T03:41:08.447Z,83.77
2016-11-10T03:42:08.061Z,82.88
2016-11-10T03:43:07.757Z,83.22
2016-11-10T03:44:09.642Z,83.25
2016-11-10T03:45:08.437Z,83.76
2016-11-10T03:46:09.368Z,84.39
2016-11-10T03:47:09.576Z,83.68
2016-11-10T03:48:08.603Z,83.49
2016-11-10T03:49:09.095Z,83.25
2016-11-10T03:50:08.289Z,83.39
2016-11-10T03:51:08.212Z,83.48
2016-11-10T03:52:16.194Z,83.38
2016-11-10T03:53:07.872Z,83.08
2016-11-10T03:54:08.544Z,83.29
2016-11-10T03:55:08.331Z,83.07
2016-11-10T03:56:15.024Z,83.86
2016-11-10T03:57:07.863Z,83.57
2016-11-10T03:58:08.543Z,83.35
2016-11-10T03:59:08.298Z,83.89
2016-11-10T04:00:08.334Z,83.96
2016-11-10T04:01:08.063Z,82.84
2016-11-10T04:02:08.195Z,82.10
2016-11-10T04:03:07.900Z,83.26
2016-11-10T04:04:10.077Z,83.42
2016-11-10T04:05:08.227Z,83.05
2016-11-10T04:06:08.014Z,83.37
2016-11-10T04:07:07.770Z,83.39
2016-11-10T04:08:09.598Z,83.30
2016-11-10T04:09:08.254Z,83.58
2016-11-10T04:10:08.092Z,83.35
2016-11-10T04:11:07.706Z,83.51
2016-11-10T04:12:08.441Z,82.67
2016-11-10T04:13:08.013Z,82.79
2016-11-10T04:14:07.701Z,82.79
2016-11-10T04:15:08.516Z,82.99
2016-11-10T04:16:08.117Z,82.93
2016-11-10T04:17:07.832Z,82.93
2016-11-10T04:18:09.460Z,83.40
2016-11-10T04:19:08.228Z,82.06
2016-11-10T04:20:08.069Z,82.81
2016-11-10T04:21:07.836Z,83.17
2016-11-10T04:22:08.511Z,83.10
2016-11-10T04:23:08.283Z,83.00
2016-11-10T04:24:08.009Z,83.17
2016-11-10T04:25:07.838Z,82.60
2016-11-10T04:26:08.483Z,82.08
2016-11-10T04:27:08.213Z,82.14
2016-11-10T04:28:07.984Z,82.73
2016-11-10T04:29:10.280Z,83.84
2016-11-10T04:30:08.253Z,83.73
2016-11-10T04:31:07.972Z,84.13
2016-11-10T04:32:07.664Z,83.14
2016-11-10T04:33:08.596Z,83.80
2016-11-10T04:34:08.489Z,83.67
2016-11-10T04:35:08.243Z,82.92
2016-11-10T04:36:08.117Z,83.27
2016-11-10T04:37:07.885Z,83.51
2016-11-10T04:38:08.654Z,82.74
2016-11-10T04:39:08.326Z,82.59
2016-11-10T04:40:07.879Z,82.10
2016-11-10T04:41:08.590Z,82.72
2016-11-10T04:42:08.387Z,82.71
2016-11-10T04:43:08.787Z,82.42
2016-11-10T04:44:08.445Z,81.99
2016-11-10T04:45:08.128Z,82.36
2016-11-10T04:46:07.786Z,82.03
2016-11-10T04:47:08.576Z,81.86
2016-11-10T04:48:08.685Z,82.76
2016-11-10T04:49:08.648Z,82.91
2016-11-10T04:50:08.699Z,83.73
2016-11-10T04:51:08.282Z,83.55
2016-11-10T04:52:08.013Z,84.54
2016-11-10T04:53:08.181Z,83.95
2016-11-10T04:54:07.849Z,84.78
2016-11-10T04:55:08.709Z,86.07
2016-11-10T04:56:08.584Z,84.83
2016-11-10T04:57:28.712Z,86.75
2016-11-10T04:58:08.674Z,86.84
2016-11-10T04:59:08.620Z,87.33
2016-11-10T05:00:08.586Z,87.87
2016-11-10T05:01:08.535Z,89.03
2016-11-10T05:02:08.361Z,90.15
2016-11-10T05:03:08.226Z,90.77
2016-11-10T05:04:08.153Z,91.56
2016-11-10T05:05:07.961Z,92.40
2016-11-10T05:06:07.773Z,92.68
2016-11-10T05:07:09.343Z,92.69
2016-11-10T05:08:08.536Z,93.19
2016-11-10T05:09:08.214Z,94.32
2016-11-10T05:10:08.251Z,94.70
2016-11-10T05:11:07.857Z,94.17
2016-11-10T05:12:08.642Z,94.82
2016-11-10T05:13:08.375Z,95.21
2016-11-10T05:14:08.098Z,95.44
2016-11-10T05:15:07.824Z,95.54
2016-11-10T05:16:14.144Z,96.02
2016-11-10T05:17:07.997Z,96.23
2016-11-10T05:18:19.627Z,95.45
2016-11-10T05:19:08.491Z,95.95
2016-11-10T05:20:09.214Z,96.42
2016-11-10T05:21:07.919Z,96.31
2016-11-10T05:22:08.788Z,97.08
2016-11-10T05:23:08.740Z,97.36
2016-11-10T05:24:08.959Z,96.11
2016-11-10T05:25:10.487Z,98.32
2016-11-10T05:26:08.269Z,97.71
2016-11-10T05:27:08.240Z,96.94
2016-11-10T05:28:08.177Z,97.03
2016-11-10T05:29:07.784Z,98.07
2016-11-10T05:30:08.296Z,98.16
2016-11-10T05:31:08.139Z,97.16
2016-11-10T05:32:07.942Z,97.44
2016-11-10T05:33:07.611Z,98.00
2016-11-10T05:34:15.144Z,98.07
2016-11-10T05:35:08.291Z,97.29
2016-11-10T05:36:07.971Z,98.07
2016-11-10T05:37:08.067Z,98.66
2016-11-10T05:38:08.028Z,99.66
2016-11-10T05:39:07.791Z,98.26
2016-11-10T05:40:09.054Z,98.57
2016-11-10T05:41:07.976Z,98.04
2016-11-10T05:42:07.744Z,98.90
2016-11-10T05:43:08.639Z,98.77
2016-11-10T05:44:08.306Z,99.67
2016-11-10T05:45:08.072Z,99.67
2016-11-10T05:46:07.822Z,99.23
2016-11-10T05:47:08.567Z,99.24
2016-11-10T05:48:08.373Z,99.26
2016-11-10T05:49:17.172Z,98.08
2016-11-10T05:50:07.914Z,98.08
2016-11-10T05:51:08.520Z,98.29
2016-11-10T05:52:08.206Z,98.15
2016-11-10T05:53:08.050Z,98.55
2016-11-10T05:54:07.690Z,98.95
2016-11-10T05:55:08.358Z,97.77
2016-11-10T05:56:08.148Z,98.43
2016-11-10T05:57:07.958Z,99.43
2016-11-10T05:58:07.909Z,98.14
2016-11-10T05:59:09.735Z,98.20
2016-11-10T06:00:08.558Z,98.39
2016-11-10T06:01:08.223Z,98.11
2016-11-10T06:02:07.879Z,98.09
2016-11-10T06:03:14.188Z,97.46
2016-11-10T06:04:07.915Z,98.29
2016-11-10T06:05:08.913Z,98.82
2016-11-10T06:06:08.610Z,99.01
2016-11-10T06:07:08.343Z,99.16
2016-11-10T06:08:08.229Z,98.80
2016-11-10T06:09:08.044Z,98.14
2016-11-10T06:10:07.822Z,97.40
2016-11-10T06:11:09.485Z,98.82
2016-11-10T06:12:08.221Z,97.55
2016-11-10T06:13:21.331Z,98.27
2016-11-10T06:14:08.043Z,98.38
2016-11-10T06:15:07.723Z,96.80
2016-11-10T06:16:08.537Z,97.89
2016-11-10T06:17:08.292Z,98.60
2016-11-10T06:18:09.481Z,98.01
2016-11-10T06:19:08.154Z,98.41
2016-11-10T06:20:08.234Z,97.49
2016-11-10T06:21:13.467Z,98.13
2016-11-10T06:22:08.351Z,98.07
2016-11-10T06:23:08.068Z,96.82
2016-11-10T06:24:08.052Z,97.64
2016-11-10T06:25:08.197Z,98.09
2016-11-10T06:26:07.929Z,97.92
2016-11-10T06:27:08.779Z,97.91
2016-11-10T06:28:08.532Z,97.99
2016-11-10T06:29:08.248Z,97.58
2016-11-10T06:30:08.495Z,98.37
2016-11-10T06:31:08.244Z,98.78
2016-11-10T06:32:07.909Z,97.22
2016-11-10T06:33:08.721Z,98.16
2016-11-10T06:34:08.514Z,97.94
2016-11-10T06:35:08.245Z,97.27
2016-11-10T06:36:07.961Z,96.96
2016-11-10T06:37:07.670Z,97.64
2016-11-10T06:38:08.280Z,96.91
2016-11-10T06:39:08.070Z,95.95
2016-11-10T06:40:07.840Z,96.72
2016-11-10T06:41:08.429Z,96.90
2016-11-10T06:42:08.066Z,97.16
2016-11-10T06:43:07.663Z,96.96
2016-11-10T06:44:08.420Z,96.79
2016-11-10T06:45:08.066Z,96.45
2016-11-10T06:46:07.796Z,96.27
2016-11-10T06:47:08.611Z,96.63
2016-11-10T06:48:08.151Z,97.27
2016-11-10T06:49:08.474Z,96.46
2016-11-10T06:50:08.405Z,95.61
2016-11-10T06:51:08.863Z,96.34
2016-11-10T06:52:08.634Z,96.22
2016-11-10T06:53:08.370Z,96.41
2016-11-10T06:54:08.089Z,96.72
2016-11-10T06:55:07.773Z,95.72
2016-11-10T06:56:08.718Z,96.01
2016-11-10T06:57:08.959Z,96.56
2016-11-10T06:58:07.661Z,97.26
2016-11-10T06:59:08.983Z,96.14
2016-11-10T07:00:07.709Z,96.62
2016-11-10T07:01:08.489Z,96.10
2016-11-10T07:02:08.094Z,95.95
2016-11-10T07:03:07.919Z,95.60
2016-11-10T07:04:08.680Z,96.18
2016-11-10T07:05:08.619Z,95.03
2016-11-10T07:06:08.812Z,95.85
2016-11-10T07:07:08.482Z,96.39
2016-11-10T07:08:08.098Z,96.46
2016-11-10T07:09:07.691Z,96.80
2016-11-10T07:10:08.455Z,95.02
2016-11-10T07:11:08.199Z,95.49
2016-11-10T07:12:07.793Z,96.07
2016-11-10T07:13:08.149Z,95.57
2016-11-10T07:14:07.823Z,95.96
2016-11-10T07:15:08.595Z,94.70
2016-11-10T07:16:08.182Z,95.78
2016-11-10T07:17:07.884Z,94.57
2016-11-10T07:18:08.467Z,93.82
2016-11-10T07:19:08.131Z,94.94
2016-11-10T07:20:08.032Z,95.57
2016-11-10T07:21:07.814Z,94.49
2016-11-10T07:22:08.413Z,93.64
2016-11-10T07:23:08.288Z,93.36
2016-11-10T07:24:08.093Z,94.42
2016-11-10T07:25:07.831Z,94.45
2016-11-10T07:26:08.576Z,94.31
2016-11-10T07:27:08.285Z,94.19
2016-11-10T07:28:08.102Z,93.96
2016-11-10T07:29:07.777Z,93.58
2016-11-10T07:30:08.380Z,93.77
2016-11-10T07:31:08.084Z,93.89
2016-11-10T07:32:07.855Z,93.70
2016-11-10T07:33:08.314Z,92.74
2016-11-10T07:34:07.743Z,93.05
2016-11-10T07:35:08.459Z,93.25
2016-11-10T07:36:08.122Z,93.82
2016-11-10T07:37:07.998Z,92.67
2016-11-10T07:38:07.657Z,92.19
2016-11-10T07:39:08.308Z,91.14
2016-11-10T07:40:17.824Z,91.96
2016-11-10T07:41:08.519Z,92.15
2016-11-10T07:42:08.196Z,91.83
2016-11-10T07:43:07.874Z,91.51
2016-11-10T07:44:08.602Z,92.28
2016-11-10T07:45:08.507Z,90.86
2016-11-10T07:46:08.315Z,91.99
2016-11-10T07:47:08.149Z,91.85
2016-11-10T07:48:07.986Z,91.95
2016-11-10T07:49:07.720Z,91.85
2016-11-10T07:50:08.607Z,90.74
2016-11-10T07:51:08.474Z,91.17
2016-11-10T07:52:08.199Z,91.68
2016-11-10T07:53:07.879Z,92.34
2016-11-10T07:54:08.585Z,91.42
2016-11-10T07:55:08.223Z,92.13
2016-11-10T07:56:08.541Z,91.96
2016-11-10T07:57:08.195Z,91.88
2016-11-10T07:58:09.181Z,90.75
2016-11-10T07:59:07.969Z,91.20
2016-11-10T08:00:07.686Z,91.17
2016-11-10T08:01:08.560Z,91.58
2016-11-10T08:02:08.209Z,91.88
2016-11-10T08:03:07.964Z,91.56
2016-11-10T08:04:07.704Z,90.47
2016-11-10T08:05:08.322Z,90.87
2016-11-10T08:06:08.176Z,89.71
2016-11-10T08:07:07.755Z,89.75
2016-11-10T08:08:08.465Z,89.90
2016-11-10T08:09:08.213Z,89.25
2016-11-10T08:10:08.111Z,89.00
2016-11-10T08:11:07.846Z,89.62
2016-11-10T08:12:08.503Z,90.06
2016-11-10T08:13:16.901Z,89.36
2016-11-10T08:14:08.560Z,88.19
2016-11-10T08:15:08.229Z,89.39
2016-11-10T08:16:07.826Z,88.72
2016-11-10T08:17:09.447Z,88.49
2016-11-10T08:18:08.229Z,88.81
2016-11-10T08:19:07.849Z,88.55
2016-11-10T08:20:08.693Z,87.96
2016-11-10T08:21:08.282Z,88.88
2016-11-10T08:22:07.899Z,90.12
2016-11-10T08:23:10.209Z,90.05
2016-11-10T08:24:10.855Z,88.81
2016-11-10T08:25:16.668Z,88.66
2016-11-10T08:26:08.479Z,89.30
2016-11-10T08:27:10.011Z,89.04
2016-11-10T08:28:07.990Z,89.89
2016-11-10T08:29:14.608Z,89.45
2016-11-10T08:30:09.310Z,88.92
2016-11-10T08:31:08.526Z,89.75
2016-11-10T08:32:08.395Z,88.90
2016-11-10T08:33:08.128Z,88.69
2016-11-10T08:34:07.939Z,88.17
2016-11-10T08:35:16.782Z,88.09
2016-11-10T08:36:08.537Z,87.67
2016-11-10T08:37:08.279Z,88.53
2016-11-10T08:38:08.009Z,88.79
2016-11-10T08:39:07.576Z,87.62
2016-11-10T08:40:08.478Z,87.82
2016-11-10T08:41:08.232Z,88.83
2016-11-10T08:42:08.042Z,88.61
2016-11-10T08:43:07.609Z,88.89
2016-11-10T08:44:08.417Z,88.03
2016-11-10T08:45:08.231Z,88.97
2016-11-10T08:46:08.022Z,88.91
2016-11-10T08:47:07.787Z,88.72
2016-11-10T08:48:08.404Z,88.87
2016-11-10T08:49:08.171Z,89.00
2016-11-10T08:50:07.869Z,88.32
2016-11-10T08:51:08.525Z,86.98
2016-11-10T08:52:08.854Z,87.71
2016-11-10T08:53:08.680Z,88.01
2016-11-10T08:54:09.004Z,87.47
2016-11-10T08:55:07.654Z,88.04
2016-11-10T08:56:08.249Z,88.54
2016-11-10T08:57:07.928Z,87.70
2016-11-10T08:58:08.645Z,88.00
2016-11-10T08:59:08.503Z,87.88
2016-11-10T09:00:08.268Z,88.36
2016-11-10T09:01:07.939Z,88.35
2016-11-10T09:02:07.763Z,87.28
2016-11-10T09:03:08.444Z,87.81
2016-11-10T09:04:08.228Z,88.54
2016-11-10T09:05:07.961Z,87.73
2016-11-10T09:06:07.729Z,88.64
2016-11-10T09:07:08.413Z,88.90
2016-11-10T09:08:08.252Z,89.37
2016-11-10T09:09:14.058Z,88.54
2016-11-10T09:10:07.827Z,90.47
2016-11-10T09:11:08.454Z,90.00
2016-11-10T09:12:08.219Z,90.84
2016-11-10T09:13:07.733Z,91.43
2016-11-10T09:14:09.871Z,92.25
2016-11-10T09:15:08.600Z,92.78
2016-11-10T09:16:08.239Z,92.20
2016-11-10T09:17:08.308Z,92.24
2016-11-10T09:18:08.088Z,91.94
2016-11-10T09:19:07.793Z,91.92
2016-11-10T09:20:08.564Z,91.72
2016-11-10T09:21:08.429Z,92.32
2016-11-10T09:22:08.106Z,91.94
2016-11-10T09:23:07.699Z,93.35
2016-11-10T09:24:08.324Z,91.98
2016-11-10T09:25:07.924Z,93.16
2016-11-10T09:26:08.609Z,92.96
2016-11-10T09:27:08.249Z,92.67
2016-11-10T09:28:08.200Z,93.68
2016-11-10T09:29:08.610Z,94.20
2016-11-10T09:30:08.208Z,93.86
2016-11-10T09:31:08.713Z,93.84
2016-11-10T09:32:08.404Z,93.63
2016-11-10T09:33:08.265Z,95.28
2016-11-10T09:34:07.897Z,94.93
2016-11-10T09:35:08.784Z,95.42
2016-11-10T09:36:10.039Z,94.49
2016-11-10T09:37:08.022Z,93.34
2016-11-10T09:38:07.842Z,94.50
2016-11-10T09:39:08.689Z,93.90
2016-11-10T09:40:08.385Z,93.10
2016-11-10T09:41:08.201Z,92.54
2016-11-10T09:42:07.783Z,94.87
2016-11-10T09:43:09.456Z,94.00
2016-11-10T09:44:08.264Z,93.30
2016-11-10T09:45:07.881Z,93.93
2016-11-10T09:46:08.718Z,93.60
2016-11-10T09:47:08.428Z,93.36
2016-11-10T09:48:08.158Z,93.41
2016-11-10T09:49:07.816Z,93.43
2016-11-10T09:50:08.829Z,94.28
2016-11-10T09:51:08.670Z,91.48
2016-11-10T09:52:08.409Z,92.60
2016-11-10T09:53:08.342Z,92.90
2016-11-10T09:54:08.029Z,92.90
2016-11-10T09:55:07.638Z,92.15
2016-11-10T09:56:08.249Z,90.61
2016-11-10T09:57:08.012Z,90.09
2016-11-10T09:58:07.802Z,90.66
2016-11-10T09:59:08.569Z,89.82
2016-11-10T10:00:08.261Z,88.65
2016-11-10T10:01:08.058Z,90.04
2016-11-10T10:02:07.800Z,91.04
2016-11-10T10:03:08.528Z,88.31
2016-11-10T10:04:08.555Z,87.51
2016-11-10T10:05:08.251Z,87.42
2016-11-10T10:06:08.519Z,86.93
2016-11-10T10:07:08.273Z,87.59
2016-11-10T10:08:08.018Z,87.14
2016-11-10T10:09:08.593Z,86.82
2016-11-10T10:10:08.391Z,87.02
2016-11-10T10:11:08.149Z,85.70
2016-11-10T10:12:08.657Z,86.96
2016-11-10T10:13:08.288Z,86.95
2016-11-10T10:14:08.127Z,86.92
2016-11-10T10:15:07.703Z,86.16
2016-11-10T10:16:08.310Z,85.98
2016-11-10T10:17:08.118Z,85.51
2016-11-10T10:18:07.759Z,84.71
2016-11-10T10:19:08.676Z,84.70
2016-11-10T10:20:08.263Z,84.62
2016-11-10T10:21:07.996Z,85.09
2016-11-10T10:22:07.629Z,84.59
2016-11-10T10:23:08.197Z,83.97
2016-11-10T10:24:07.947Z,85.10
2016-11-10T10:25:07.757Z,85.68
2016-11-10T10:26:08.372Z,84.85
2016-11-10T10:27:08.095Z,84.75
2016-11-10T10:28:07.983Z,85.04
2016-11-10T10:29:07.756Z,85.32
2016-11-10T10:30:08.954Z,85.85
2016-11-10T10:31:07.696Z,85.64
2016-11-10T10:32:08.556Z,85.10
2016-11-10T10:33:08.313Z,84.70
2016-11-10T10:34:08.010Z,84.47
2016-11-10T10:35:07.758Z,84.78
2016-11-10T10:36:08.421Z,85.40
2016-11-10T10:37:08.170Z,86.79
2016-11-10T10:38:07.986Z,85.63
2016-11-10T10:39:07.626Z,83.39
2016-11-10T10:40:08.072Z,83.95
2016-11-10T10:41:08.408Z,83.56
2016-11-10T10:42:08.073Z,84.18
2016-11-10T10:43:07.710Z,84.45
2016-11-10T10:44:08.418Z,82.62
2016-11-10T10:45:08.291Z,81.92
2016-11-10T10:46:08.166Z,82.61
2016-11-10T10:47:08.003Z,82.16
2016-11-10T10:48:07.834Z,81.36
2016-11-10T10:49:08.536Z,81.60
2016-11-10T10:50:08.240Z,80.00
2016-11-10T10:51:07.997Z,81.52
2016-11-10T10:52:07.567Z,80.95
2016-11-10T10:53:08.395Z,80.22
2016-11-10T10:54:08.103Z,81.64
2016-11-10T10:55:07.801Z,80.40
2016-11-10T10:56:08.442Z,79.92
2016-11-10T10:57:08.104Z,80.09
2016-11-10T10:58:07.711Z,79.46
2016-11-10T10:59:08.412Z,79.48
2016-11-10T11:00:07.960Z,80.43
2016-11-10T11:01:07.802Z,81.05
2016-11-10T11:02:08.612Z,79.42
2016-11-10T11:03:08.513Z,79.79
2016-11-10T11:04:08.265Z,79.41
2016-11-10T11:05:07.961Z,80.19
2016-11-10T11:06:07.653Z,81.04
2016-11-10T11:07:08.319Z,81.86
2016-11-10T11:08:08.111Z,80.87
2016-11-10T11:09:07.783Z,80.44
2016-11-10T11:10:08.497Z,82.05
2016-11-10T11:11:08.401Z,81.91
2016-11-10T11:12:08.091Z,82.29
2016-11-10T11:13:07.697Z,82.25
2016-11-10T11:14:08.533Z,82.45
2016-11-10T11:15:08.339Z,81.80
2016-11-10T11:16:08.137Z,83.44
2016-11-10T11:17:07.941Z,83.98
2016-11-10T11:18:07.671Z,84.47
2016-11-10T11:19:08.392Z,83.48
2016-11-10T11:20:08.252Z,83.53
2016-11-10T11:21:07.969Z,83.65
2016-11-10T11:22:07.772Z,84.09
2016-11-10T11:23:08.545Z,85.04
2016-11-10T11:24:08.127Z,85.77
2016-11-10T11:25:07.798Z,87.79
2016-11-10T11:26:08.456Z,88.62
2016-11-10T11:27:08.220Z,88.98
2016-11-10T11:28:07.844Z,89.46
2016-11-10T11:29:08.522Z,89.70
2016-11-10T11:30:08.154Z,89.45
2016-11-10T11:31:07.983Z,89.25
2016-11-10T11:32:07.805Z,89.44
2016-11-10T11:33:08.383Z,90.23
2016-11-10T11:34:08.077Z,87.12
2016-11-10T11:35:07.696Z,87.91
2016-11-10T11:36:08.367Z,87.43
2016-11-10T11:37:08.118Z,87.50
2016-11-10T11:38:07.681Z,86.94
2016-11-10T11:39:08.369Z,86.52
2016-11-10T11:40:07.995Z,84.74
2016-11-10T11:41:07.673Z,84.79
2016-11-10T11:42:08.437Z,84.76
2016-11-10T11:43:08.117Z,85.73
2016-11-10T11:44:07.716Z,85.71
2016-11-10T11:45:08.405Z,83.67
2016-11-10T11:46:08.127Z,86.33
2016-11-10T11:47:07.829Z,85.19
2016-11-10T11:48:08.435Z,84.15
2016-11-10T11:49:08.259Z,83.29
2016-11-10T11:50:08.010Z,84.69
2016-11-10T11:51:07.707Z,86.31
2016-11-10T11:52:08.476Z,83.78
2016-11-10T11:53:08.395Z,82.75
2016-11-10T11:54:08.188Z,82.94
2016-11-10T11:55:07.935Z,83.07
2016-11-10T11:56:07.644Z,81.99
2016-11-10T11:57:08.342Z,80.77
2016-11-10T11:58:08.108Z,80.80
2016-11-10T11:59:07.894Z,80.29
2016-11-10T12:00:08.631Z,80.78
2016-11-10T12:01:08.471Z,81.74
2016-11-10T12:02:08.110Z,80.46
2016-11-10T12:03:07.789Z,80.57
2016-11-10T12:04:08.394Z,80.16
2016-11-10T12:05:08.029Z,78.39
2016-11-10T12:06:07.716Z,78.11
2016-11-10T12:07:08.490Z,79.92
2016-11-10T12:08:08.141Z,78.46
2016-11-10T12:09:07.858Z,78.04
2016-11-10T12:10:08.775Z,78.02
2016-11-10T12:11:08.462Z,77.91
2016-11-10T12:12:08.193Z,77.11
2016-11-10T12:13:07.905Z,76.13
2016-11-10T12:14:09.267Z,75.43
2016-11-10T12:15:08.107Z,75.74
2016-11-10T12:16:07.845Z,75.45
2016-11-10T12:17:08.751Z,75.92
2016-11-10T12:18:08.411Z,76.54
2016-11-10T12:19:08.116Z,76.36
2016-11-10T12:20:07.838Z,76.34
2016-11-10T12:21:08.933Z,77.60
2016-11-10T12:22:07.651Z,75.13
2016-11-10T12:23:08.345Z,75.77
2016-11-10T12:24:15.696Z,74.99
2016-11-10T12:25:08.453Z,74.21
2016-11-10T12:26:08.142Z,76.83
2016-11-10T12:27:07.813Z,77.28
2016-11-10T12:28:08.428Z,74.53
2016-11-10T12:29:08.194Z,75.51
2016-11-10T12:30:07.880Z,75.18
2016-11-10T12:31:08.562Z,75.71
2016-11-10T12:32:08.225Z,75.32
2016-11-10T12:33:07.853Z,74.40
2016-11-10T12:34:08.581Z,75.70
2016-11-10T12:35:08.260Z,76.13
2016-11-10T12:36:07.957Z,76.38
2016-11-10T12:37:07.614Z,77.42
2016-11-10T12:38:08.340Z,75.97
2016-11-10T12:39:07.978Z,75.96
2016-11-10T12:40:07.591Z,75.78
2016-11-10T12:41:08.360Z,76.04
2016-11-10T12:42:08.197Z,76.06
2016-11-10T12:43:07.858Z,76.83
2016-11-10T12:44:08.615Z,77.63
2016-11-10T12:45:08.309Z,78.50
2016-11-10T12:46:07.941Z,77.59
2016-11-10T12:47:07.674Z,78.27
2016-11-10T12:48:08.430Z,78.75
2016-11-10T12:49:08.157Z,78.03
2016-11-10T12:50:07.854Z,77.22
2016-11-10T12:51:08.678Z,79.57
2016-11-10T12:52:08.537Z,78.72